sensor_id;sensor_type;location;lat;lon;timestamp;temperature;humidity
40960;DHT22;27842;52.272;8.052;2022-08-30T00:00:14;18.90;83.10
40960;DHT22;27842;52.272;8.052;2022-08-30T00:02:59;18.90;83.10
40960;DHT22;27842;52.272;8.052;2022-08-30T00:05:29;18.90;83.20
40960;DHT22;27842;52.272;8.052;2022-08-30T00:07:55;18.90;83.10
40960;DHT22;27842;52.272;8.052;2022-08-30T00:10:22;18.90;83.10
40960;DHT22;27842;52.272;8.052;2022-08-30T00:12:49;18.90;83.10
40960;DHT22;27842;52.272;8.052;2022-08-30T00:15:15;18.90;83.20
40960;DHT22;27842;52.272;8.052;2022-08-30T00:17:42;18.90;83.00
40960;DHT22;27842;52.272;8.052;2022-08-30T00:20:12;18.90;83.00
40960;DHT22;27842;52.272;8.052;2022-08-30T00:22:38;18.90;83.30
40960;DHT22;27842;52.272;8.052;2022-08-30T00:25:04;18.80;83.30
40960;DHT22;27842;52.272;8.052;2022-08-30T00:27:29;18.80;83.30
40960;DHT22;27842;52.272;8.052;2022-08-30T00:29:55;18.80;83.40
40960;DHT22;27842;52.272;8.052;2022-08-30T00:32:22;18.80;83.50
40960;DHT22;27842;52.272;8.052;2022-08-30T00:34:51;18.80;83.60
40960;DHT22;27842;52.272;8.052;2022-08-30T00:37:17;18.80;83.60
40960;DHT22;27842;52.272;8.052;2022-08-30T00:39:43;18.70;83.80
40960;DHT22;27842;52.272;8.052;2022-08-30T00:42:10;18.70;83.80
40960;DHT22;27842;52.272;8.052;2022-08-30T00:44:36;18.70;83.90
40960;DHT22;27842;52.272;8.052;2022-08-30T00:47:02;18.70;84.00
40960;DHT22;27842;52.272;8.052;2022-08-30T00:49:29;18.70;84.10
40960;DHT22;27842;52.272;8.052;2022-08-30T00:51:55;18.70;84.30
40960;DHT22;27842;52.272;8.052;2022-08-30T00:54:22;18.70;84.40
40960;DHT22;27842;52.272;8.052;2022-08-30T00:56:50;18.60;84.50
40960;DHT22;27842;52.272;8.052;2022-08-30T00:59:17;18.50;85.10
40960;DHT22;27842;52.272;8.052;2022-08-30T01:01:43;18.50;85.00
40960;DHT22;27842;52.272;8.052;2022-08-30T01:04:09;18.50;85.20
40960;DHT22;27842;52.272;8.052;2022-08-30T01:06:36;18.40;85.20
40960;DHT22;27842;52.272;8.052;2022-08-30T01:09:04;18.40;85.40
40960;DHT22;27842;52.272;8.052;2022-08-30T01:11:32;18.40;85.50
40960;DHT22;27842;52.272;8.052;2022-08-30T01:14:00;18.40;86.20
40960;DHT22;27842;52.272;8.052;2022-08-30T01:16:26;18.40;85.50
40960;DHT22;27842;52.272;8.052;2022-08-30T01:18:56;18.40;85.70
40960;DHT22;27842;52.272;8.052;2022-08-30T01:22:09;18.40;85.70
40960;DHT22;27842;52.272;8.052;2022-08-30T01:24:16;18.40;85.90
40960;DHT22;27842;52.272;8.052;2022-08-30T01:26:42;18.30;86.00
40960;DHT22;27842;52.272;8.052;2022-08-30T01:29:10;18.30;86.10
40960;DHT22;27842;52.272;8.052;2022-08-30T01:31:37;18.30;86.30
40960;DHT22;27842;52.272;8.052;2022-08-30T01:34:04;18.20;86.40
40960;DHT22;27842;52.272;8.052;2022-08-30T01:36:32;18.20;86.80
40960;DHT22;27842;52.272;8.052;2022-08-30T01:38:58;18.20;86.60
40960;DHT22;27842;52.272;8.052;2022-08-30T01:43:53;18.20;86.90
40960;DHT22;27842;52.272;8.052;2022-08-30T01:46:20;18.10;87.00
40960;DHT22;27842;52.272;8.052;2022-08-30T01:48:49;18.10;87.20
40960;DHT22;27842;52.272;8.052;2022-08-30T01:51:15;18.10;87.30
40960;DHT22;27842;52.272;8.052;2022-08-30T01:53:42;18.00;87.40
40960;DHT22;27842;52.272;8.052;2022-08-30T01:56:10;18.00;87.50
40960;DHT22;27842;52.272;8.052;2022-08-30T01:58:37;18.00;87.70
40960;DHT22;27842;52.272;8.052;2022-08-30T02:01:05;18.00;87.50
40960;DHT22;27842;52.272;8.052;2022-08-30T02:03:32;18.00;87.70
40960;DHT22;27842;52.272;8.052;2022-08-30T02:06:07;17.90;87.80
40960;DHT22;27842;52.272;8.052;2022-08-30T02:08:33;17.90;88.20
40960;DHT22;27842;52.272;8.052;2022-08-30T02:10:59;17.90;88.10
40960;DHT22;27842;52.272;8.052;2022-08-30T02:13:28;17.90;88.20
40960;DHT22;27842;52.272;8.052;2022-08-30T02:15:55;17.90;88.50
40960;DHT22;27842;52.272;8.052;2022-08-30T02:18:22;17.90;88.40
40960;DHT22;27842;52.272;8.052;2022-08-30T02:20:48;17.90;88.60
40960;DHT22;27842;52.272;8.052;2022-08-30T02:23:14;17.90;88.50
40960;DHT22;27842;52.272;8.052;2022-08-30T02:25:40;17.90;88.60
40960;DHT22;27842;52.272;8.052;2022-08-30T02:28:06;17.80;88.70
40960;DHT22;27842;52.272;8.052;2022-08-30T02:30:32;17.90;88.90
40960;DHT22;27842;52.272;8.052;2022-08-30T02:32:58;17.90;88.90
40960;DHT22;27842;52.272;8.052;2022-08-30T02:35:24;17.90;89.00
40960;DHT22;27842;52.272;8.052;2022-08-30T02:37:50;17.80;89.00
40960;DHT22;27842;52.272;8.052;2022-08-30T02:40:16;17.90;89.00
40960;DHT22;27842;52.272;8.052;2022-08-30T02:42:42;17.80;89.20
40960;DHT22;27842;52.272;8.052;2022-08-30T02:45:08;17.80;89.10
40960;DHT22;27842;52.272;8.052;2022-08-30T02:47:34;17.80;89.70
40960;DHT22;27842;52.272;8.052;2022-08-30T02:50:05;17.80;89.10
40960;DHT22;27842;52.272;8.052;2022-08-30T02:52:31;17.90;89.10
40960;DHT22;27842;52.272;8.052;2022-08-30T02:54:57;17.80;89.00
40960;DHT22;27842;52.272;8.052;2022-08-30T02:57:22;17.90;89.10
40960;DHT22;27842;52.272;8.052;2022-08-30T02:59:48;17.90;89.10
40960;DHT22;27842;52.272;8.052;2022-08-30T04:07:29;17.50;90.20
40960;DHT22;27842;52.272;8.052;2022-08-30T04:09:55;17.50;90.20
40960;DHT22;27842;52.272;8.052;2022-08-30T04:12:20;17.50;90.30
40960;DHT22;27842;52.272;8.052;2022-08-30T04:14:46;17.40;90.30
40960;DHT22;27842;52.272;8.052;2022-08-30T04:17:11;17.40;90.30
40960;DHT22;27842;52.272;8.052;2022-08-30T04:19:37;17.40;90.40
40960;DHT22;27842;52.272;8.052;2022-08-30T04:22:02;17.40;90.30
40960;DHT22;27842;52.272;8.052;2022-08-30T04:24:28;17.30;90.50
40960;DHT22;27842;52.272;8.052;2022-08-30T04:26:54;17.30;90.40
40960;DHT22;27842;52.272;8.052;2022-08-30T04:29:20;17.30;90.40
40960;DHT22;27842;52.272;8.052;2022-08-30T04:31:45;17.30;90.50
40960;DHT22;27842;52.272;8.052;2022-08-30T04:34:12;17.30;90.50
40960;DHT22;27842;52.272;8.052;2022-08-30T04:36:38;17.20;90.50
40960;DHT22;27842;52.272;8.052;2022-08-30T04:39:04;17.30;90.50
40960;DHT22;27842;52.272;8.052;2022-08-30T04:41:29;17.20;90.50
40960;DHT22;27842;52.272;8.052;2022-08-30T04:43:55;17.20;90.50
40960;DHT22;27842;52.272;8.052;2022-08-30T04:46:21;17.20;90.50
40960;DHT22;27842;52.272;8.052;2022-08-30T04:48:46;17.20;90.50
40960;DHT22;27842;52.272;8.052;2022-08-30T04:51:15;17.20;90.50
40960;DHT22;27842;52.272;8.052;2022-08-30T04:53:41;17.20;90.60
40960;DHT22;27842;52.272;8.052;2022-08-30T04:56:10;17.20;90.60
40960;DHT22;27842;52.272;8.052;2022-08-30T04:58:36;17.20;90.60
40960;DHT22;27842;52.272;8.052;2022-08-30T05:01:02;17.20;90.50
40960;DHT22;27842;52.272;8.052;2022-08-30T05:03:28;17.20;90.60
40960;DHT22;27842;52.272;8.052;2022-08-30T05:05:53;17.20;90.60
40960;DHT22;27842;52.272;8.052;2022-08-30T05:08:20;17.10;90.60
40960;DHT22;27842;52.272;8.052;2022-08-30T05:10:49;17.20;90.60
40960;DHT22;27842;52.272;8.052;2022-08-30T05:13:17;17.20;90.60
40960;DHT22;27842;52.272;8.052;2022-08-30T05:15:44;17.20;90.60
40960;DHT22;27842;52.272;8.052;2022-08-30T05:18:10;17.20;90.60
40960;DHT22;27842;52.272;8.052;2022-08-30T05:20:36;17.20;90.60
40960;DHT22;27842;52.272;8.052;2022-08-30T05:23:02;17.20;90.70
40960;DHT22;27842;52.272;8.052;2022-08-30T05:25:36;17.20;90.60
40960;DHT22;27842;52.272;8.052;2022-08-30T05:28:02;17.10;90.60
40960;DHT22;27842;52.272;8.052;2022-08-30T05:30:31;17.10;90.60
40960;DHT22;27842;52.272;8.052;2022-08-30T05:32:57;17.10;90.70
40960;DHT22;27842;52.272;8.052;2022-08-30T05:35:22;17.20;90.70
40960;DHT22;27842;52.272;8.052;2022-08-30T05:37:48;17.20;90.70
40960;DHT22;27842;52.272;8.052;2022-08-30T05:40:13;17.20;90.70
40960;DHT22;27842;52.272;8.052;2022-08-30T05:42:43;17.20;90.60
40960;DHT22;27842;52.272;8.052;2022-08-30T05:45:09;17.20;90.70
40960;DHT22;27842;52.272;8.052;2022-08-30T05:47:36;17.20;90.70
40960;DHT22;27842;52.272;8.052;2022-08-30T05:50:02;17.20;90.70
40960;DHT22;27842;52.272;8.052;2022-08-30T05:52:27;17.20;90.60
40960;DHT22;27842;52.272;8.052;2022-08-30T05:54:56;17.20;90.60
40960;DHT22;27842;52.272;8.052;2022-08-30T05:57:24;17.20;90.60
40960;DHT22;27842;52.272;8.052;2022-08-30T05:59:50;17.20;90.70
40960;DHT22;27842;52.272;8.052;2022-08-30T06:02:16;17.20;90.70
40960;DHT22;27842;52.272;8.052;2022-08-30T06:04:42;17.20;90.70
40960;DHT22;27842;52.272;8.052;2022-08-30T06:07:07;17.20;90.70
40960;DHT22;27842;52.272;8.052;2022-08-30T06:09:33;17.20;90.80
40960;DHT22;27842;52.272;8.052;2022-08-30T06:11:59;17.10;90.80
40960;DHT22;27842;52.272;8.052;2022-08-30T06:14:24;17.20;90.80
40960;DHT22;27842;52.272;8.052;2022-08-30T06:16:50;17.20;90.80
40960;DHT22;27842;52.272;8.052;2022-08-30T06:19:17;17.20;90.80
40960;DHT22;27842;52.272;8.052;2022-08-30T06:21:47;17.20;90.80
40960;DHT22;27842;52.272;8.052;2022-08-30T06:24:13;17.30;90.80
40960;DHT22;27842;52.272;8.052;2022-08-30T06:26:42;17.30;90.80
40960;DHT22;27842;52.272;8.052;2022-08-30T06:29:09;17.30;90.80
40960;DHT22;27842;52.272;8.052;2022-08-30T06:31:35;17.30;90.90
40960;DHT22;27842;52.272;8.052;2022-08-30T06:34:02;17.30;90.90
40960;DHT22;27842;52.272;8.052;2022-08-30T06:36:27;17.30;91.00
40960;DHT22;27842;52.272;8.052;2022-08-30T06:38:55;17.40;91.00
40960;DHT22;27842;52.272;8.052;2022-08-30T06:41:23;17.30;91.00
40960;DHT22;27842;52.272;8.052;2022-08-30T06:43:49;17.30;91.30
40960;DHT22;27842;52.272;8.052;2022-08-30T06:46:19;17.30;91.50
40960;DHT22;27842;52.272;8.052;2022-08-30T06:48:44;17.40;91.20
40960;DHT22;27842;52.272;8.052;2022-08-30T06:51:10;17.40;91.10
40960;DHT22;27842;52.272;8.052;2022-08-30T06:53:36;17.50;91.00
40960;DHT22;27842;52.272;8.052;2022-08-30T06:56:05;17.50;91.00
40960;DHT22;27842;52.272;8.052;2022-08-30T06:58:35;17.60;90.80
40960;DHT22;27842;52.272;8.052;2022-08-30T07:01:03;17.70;90.90
40960;DHT22;27842;52.272;8.052;2022-08-30T07:03:29;17.80;90.80
40960;DHT22;27842;52.272;8.052;2022-08-30T07:05:56;17.90;90.70
40960;DHT22;27842;52.272;8.052;2022-08-30T07:08:22;18.00;90.60
40960;DHT22;27842;52.272;8.052;2022-08-30T07:10:50;18.10;90.60
40960;DHT22;27842;52.272;8.052;2022-08-30T07:13:16;18.10;90.50
40960;DHT22;27842;52.272;8.052;2022-08-30T07:15:44;18.20;90.40
40960;DHT22;27842;52.272;8.052;2022-08-30T07:18:10;18.30;90.30
40960;DHT22;27842;52.272;8.052;2022-08-30T07:20:55;18.40;90.20
40960;DHT22;27842;52.272;8.052;2022-08-30T07:23:21;18.50;90.10
40960;DHT22;27842;52.272;8.052;2022-08-30T07:25:46;18.50;90.00
40960;DHT22;27842;52.272;8.052;2022-08-30T07:28:12;18.60;90.00
40960;DHT22;27842;52.272;8.052;2022-08-30T07:30:39;18.60;90.00
40960;DHT22;27842;52.272;8.052;2022-08-30T07:33:05;18.60;89.90
40960;DHT22;27842;52.272;8.052;2022-08-30T07:35:31;18.60;89.90
40960;DHT22;27842;52.272;8.052;2022-08-30T07:37:57;18.70;89.80
40960;DHT22;27842;52.272;8.052;2022-08-30T07:40:23;18.60;89.70
40960;DHT22;27842;52.272;8.052;2022-08-30T07:42:49;18.60;89.80
40960;DHT22;27842;52.272;8.052;2022-08-30T07:45:15;18.70;89.70
40960;DHT22;27842;52.272;8.052;2022-08-30T07:47:40;18.70;89.50
40960;DHT22;27842;52.272;8.052;2022-08-30T07:50:06;18.80;89.50
40960;DHT22;27842;52.272;8.052;2022-08-30T07:52:33;18.80;89.30
40960;DHT22;27842;52.272;8.052;2022-08-30T07:54:59;18.80;89.20
40960;DHT22;27842;52.272;8.052;2022-08-30T07:57:31;18.80;89.40
40960;DHT22;27842;52.272;8.052;2022-08-30T08:00:00;18.80;89.30
40960;DHT22;27842;52.272;8.052;2022-08-30T08:02:26;18.80;89.20
40960;DHT22;27842;52.272;8.052;2022-08-30T08:04:54;18.80;89.30
40960;DHT22;27842;52.272;8.052;2022-08-30T08:07:19;18.90;89.10
40960;DHT22;27842;52.272;8.052;2022-08-30T08:09:45;18.80;89.00
40960;DHT22;27842;52.272;8.052;2022-08-30T08:12:10;18.80;89.10
40960;DHT22;27842;52.272;8.052;2022-08-30T08:14:36;18.80;89.20
40960;DHT22;27842;52.272;8.052;2022-08-30T08:17:02;18.80;89.10
40960;DHT22;27842;52.272;8.052;2022-08-30T08:19:29;18.80;89.10
40960;DHT22;27842;52.272;8.052;2022-08-30T08:21:55;18.80;89.00
40960;DHT22;27842;52.272;8.052;2022-08-30T08:24:25;18.80;88.80
40960;DHT22;27842;52.272;8.052;2022-08-30T08:26:50;18.90;88.80
40960;DHT22;27842;52.272;8.052;2022-08-30T08:29:16;18.80;88.60
40960;DHT22;27842;52.272;8.052;2022-08-30T08:31:42;18.80;88.80
40960;DHT22;27842;52.272;8.052;2022-08-30T08:34:08;18.90;88.80
40960;DHT22;27842;52.272;8.052;2022-08-30T08:36:35;18.90;88.50
40960;DHT22;27842;52.272;8.052;2022-08-30T08:39:02;18.90;88.40
40960;DHT22;27842;52.272;8.052;2022-08-30T08:47:27;19.20;87.80
40960;DHT22;27842;52.272;8.052;2022-08-30T08:49:58;19.30;87.50
40960;DHT22;27842;52.272;8.052;2022-08-30T08:52:30;19.50;87.00
40960;DHT22;27842;52.272;8.052;2022-08-30T08:55:19;19.60;86.70
40960;DHT22;27842;52.272;8.052;2022-08-30T08:57:46;19.80;86.40
40960;DHT22;27842;52.272;8.052;2022-08-30T09:00:13;19.90;85.90
40960;DHT22;27842;52.272;8.052;2022-08-30T09:02:43;19.90;86.20
40960;DHT22;27842;52.272;8.052;2022-08-30T09:05:13;20.10;85.50
40960;DHT22;27842;52.272;8.052;2022-08-30T09:07:45;20.30;85.00
40960;DHT22;27842;52.272;8.052;2022-08-30T09:10:12;20.40;84.50
40960;DHT22;27842;52.272;8.052;2022-08-30T09:12:38;20.40;84.10
40960;DHT22;27842;52.272;8.052;2022-08-30T09:15:15;20.40;84.00
40960;DHT22;27842;52.272;8.052;2022-08-30T09:17:51;20.40;83.90
40960;DHT22;27842;52.272;8.052;2022-08-30T09:20:25;20.40;83.90
40960;DHT22;27842;52.272;8.052;2022-08-30T09:22:51;20.40;83.70
40960;DHT22;27842;52.272;8.052;2022-08-30T09:25:25;20.40;83.90
40960;DHT22;27842;52.272;8.052;2022-08-30T09:27:52;20.40;83.80
40960;DHT22;27842;52.272;8.052;2022-08-30T09:30:27;20.40;83.70
40960;DHT22;27842;52.272;8.052;2022-08-30T09:32:58;20.50;83.60
40960;DHT22;27842;52.272;8.052;2022-08-30T09:35:43;20.50;83.30
40960;DHT22;27842;52.272;8.052;2022-08-30T09:38:22;20.60;82.50
40960;DHT22;27842;52.272;8.052;2022-08-30T09:40:59;20.70;82.60
40960;DHT22;27842;52.272;8.052;2022-08-30T09:43:33;20.80;82.30
40960;DHT22;27842;52.272;8.052;2022-08-30T09:48:44;20.90;82.00
40960;DHT22;27842;52.272;8.052;2022-08-30T09:56:38;21.10;81.10
40960;DHT22;27842;52.272;8.052;2022-08-30T10:05:31;21.20;80.10
40960;DHT22;27842;52.272;8.052;2022-08-30T10:08:30;21.20;79.40
40960;DHT22;27842;52.272;8.052;2022-08-30T10:11:20;21.20;78.20
40960;DHT22;27842;52.272;8.052;2022-08-30T10:14:27;21.20;79.10
40960;DHT22;27842;52.272;8.052;2022-08-30T10:17:05;21.20;79.80
40960;DHT22;27842;52.272;8.052;2022-08-30T10:22:30;21.10;78.30
40960;DHT22;27842;52.272;8.052;2022-08-30T10:25:10;21.10;78.80
40960;DHT22;27842;52.272;8.052;2022-08-30T10:27:45;21.10;78.80
40960;DHT22;27842;52.272;8.052;2022-08-30T10:30:13;21.20;78.50
40960;DHT22;27842;52.272;8.052;2022-08-30T10:35:27;21.30;77.70
40960;DHT22;27842;52.272;8.052;2022-08-30T10:38:07;21.30;78.40
40960;DHT22;27842;52.272;8.052;2022-08-30T10:40:37;21.40;78.20
40960;DHT22;27842;52.272;8.052;2022-08-30T10:43:29;21.40;77.80
40960;DHT22;27842;52.272;8.052;2022-08-30T10:46:01;21.30;77.80
40960;DHT22;27842;52.272;8.052;2022-08-30T10:48:37;21.30;78.00
40960;DHT22;27842;52.272;8.052;2022-08-30T10:51:15;21.30;78.00
40960;DHT22;27842;52.272;8.052;2022-08-30T10:53:50;21.40;78.10
40960;DHT22;27842;52.272;8.052;2022-08-30T10:56:20;21.40;77.80
40960;DHT22;27842;52.272;8.052;2022-08-30T10:58:47;21.50;77.70
40960;DHT22;27842;52.272;8.052;2022-08-30T11:03:58;21.50;77.20
40960;DHT22;27842;52.272;8.052;2022-08-30T11:09:08;21.60;77.00
40960;DHT22;27842;52.272;8.052;2022-08-30T11:11:56;21.60;76.60
40960;DHT22;27842;52.272;8.052;2022-08-30T11:14:25;21.70;76.60
40960;DHT22;27842;52.272;8.052;2022-08-30T11:16:52;21.60;76.60
40960;DHT22;27842;52.272;8.052;2022-08-30T11:21:48;21.70;76.40
40960;DHT22;27842;52.272;8.052;2022-08-30T11:29:43;21.80;76.00
40960;DHT22;27842;52.272;8.052;2022-08-30T11:40:42;21.90;75.00
40960;DHT22;27842;52.272;8.052;2022-08-30T11:42:55;22.00;74.60
40960;DHT22;27842;52.272;8.052;2022-08-30T11:48:01;22.00;75.00
40960;DHT22;27842;52.272;8.052;2022-08-30T11:50:50;22.10;74.10
40960;DHT22;27842;52.272;8.052;2022-08-30T11:53:54;22.20;74.60
40960;DHT22;27842;52.272;8.052;2022-08-30T11:56:30;22.30;72.60
40960;DHT22;27842;52.272;8.052;2022-08-30T11:59:06;22.30;73.70
40960;DHT22;27842;52.272;8.052;2022-08-30T12:01:36;22.50;73.40
40960;DHT22;27842;52.272;8.052;2022-08-30T12:04:07;22.60;72.60
40960;DHT22;27842;52.272;8.052;2022-08-30T12:06:50;22.80;72.90
40960;DHT22;27842;52.272;8.052;2022-08-30T12:11:58;23.10;72.40
40960;DHT22;27842;52.272;8.052;2022-08-30T12:14:46;23.20;71.00
40960;DHT22;27842;52.272;8.052;2022-08-30T12:17:26;23.50;70.20
40960;DHT22;27842;52.272;8.052;2022-08-30T12:20:36;23.70;70.80
40960;DHT22;27842;52.272;8.052;2022-08-30T12:23:21;23.90;70.50
40960;DHT22;27842;52.272;8.052;2022-08-30T12:25:48;24.10;69.40
40960;DHT22;27842;52.272;8.052;2022-08-30T12:28:23;24.40;69.30
40960;DHT22;27842;52.272;8.052;2022-08-30T12:30:51;24.50;67.90
40960;DHT22;27842;52.272;8.052;2022-08-30T12:33:27;24.70;68.60
40960;DHT22;27842;52.272;8.052;2022-08-30T12:35:57;24.80;68.60
40960;DHT22;27842;52.272;8.052;2022-08-30T12:38:24;25.00;68.00
40960;DHT22;27842;52.272;8.052;2022-08-30T12:40:56;25.20;67.40
40960;DHT22;27842;52.272;8.052;2022-08-30T12:43:30;25.40;65.70
40960;DHT22;27842;52.272;8.052;2022-08-30T12:45:59;25.40;66.20
40960;DHT22;27842;52.272;8.052;2022-08-30T12:48:27;25.60;65.40
40960;DHT22;27842;52.272;8.052;2022-08-30T12:50:56;25.70;65.20
40960;DHT22;27842;52.272;8.052;2022-08-30T12:53:29;25.80;65.50
40960;DHT22;27842;52.272;8.052;2022-08-30T12:56:11;25.90;64.20
40960;DHT22;27842;52.272;8.052;2022-08-30T12:58:51;26.10;64.40
40960;DHT22;27842;52.272;8.052;2022-08-30T13:09:35;26.30;64.20
40960;DHT22;27842;52.272;8.052;2022-08-30T13:12:20;26.20;63.40
40960;DHT22;27842;52.272;8.052;2022-08-30T13:14:46;26.30;63.30
40960;DHT22;27842;52.272;8.052;2022-08-30T13:19:55;26.20;62.20
40960;DHT22;27842;52.272;8.052;2022-08-30T13:22:33;26.20;63.00
40960;DHT22;27842;52.272;8.052;2022-08-30T13:24:59;26.30;63.30
40960;DHT22;27842;52.272;8.052;2022-08-30T13:27:26;26.40;63.00
40960;DHT22;27842;52.272;8.052;2022-08-30T13:29:53;26.50;61.70
40960;DHT22;27842;52.272;8.052;2022-08-30T13:32:19;26.50;61.10
40960;DHT22;27842;52.272;8.052;2022-08-30T13:34:45;26.50;61.20
40960;DHT22;27842;52.272;8.052;2022-08-30T13:37:21;26.50;61.10
40960;DHT22;27842;52.272;8.052;2022-08-30T13:39:48;26.50;61.20
40960;DHT22;27842;52.272;8.052;2022-08-30T13:42:13;26.30;61.70
40960;DHT22;27842;52.272;8.052;2022-08-30T13:44:39;26.30;61.70
40960;DHT22;27842;52.272;8.052;2022-08-30T13:47:05;26.30;62.00
40960;DHT22;27842;52.272;8.052;2022-08-30T13:49:34;26.40;61.60
40960;DHT22;27842;52.272;8.052;2022-08-30T13:52:04;26.50;61.00
40960;DHT22;27842;52.272;8.052;2022-08-30T13:54:30;26.70;60.00
40960;DHT22;27842;52.272;8.052;2022-08-30T13:56:56;26.70;59.80
40960;DHT22;27842;52.272;8.052;2022-08-30T13:59:22;26.70;59.80
40960;DHT22;27842;52.272;8.052;2022-08-30T14:01:49;26.70;60.10
40960;DHT22;27842;52.272;8.052;2022-08-30T14:04:15;26.80;60.10
40960;DHT22;27842;52.272;8.052;2022-08-30T14:06:41;26.80;60.20
40960;DHT22;27842;52.272;8.052;2022-08-30T14:09:07;26.80;60.00
40960;DHT22;27842;52.272;8.052;2022-08-30T14:11:35;26.80;60.00
40960;DHT22;27842;52.272;8.052;2022-08-30T14:14:01;26.80;58.90
40960;DHT22;27842;52.272;8.052;2022-08-30T14:16:27;26.70;59.30
40960;DHT22;27842;52.272;8.052;2022-08-30T14:18:54;26.70;59.10
40960;DHT22;27842;52.272;8.052;2022-08-30T14:21:20;26.70;59.20
40960;DHT22;27842;52.272;8.052;2022-08-30T14:23:45;26.70;58.90
40960;DHT22;27842;52.272;8.052;2022-08-30T14:26:20;26.60;58.80
40960;DHT22;27842;52.272;8.052;2022-08-30T14:28:46;26.70;58.60
40960;DHT22;27842;52.272;8.052;2022-08-30T14:31:13;26.70;58.20
40960;DHT22;27842;52.272;8.052;2022-08-30T14:33:40;26.80;57.90
40960;DHT22;27842;52.272;8.052;2022-08-30T14:36:07;26.80;57.50
40960;DHT22;27842;52.272;8.052;2022-08-30T14:38:33;26.70;54.80
40960;DHT22;27842;52.272;8.052;2022-08-30T14:40:58;26.60;57.20
40960;DHT22;27842;52.272;8.052;2022-08-30T14:43:24;26.60;57.50
40960;DHT22;27842;52.272;8.052;2022-08-30T14:45:49;26.50;58.00
40960;DHT22;27842;52.272;8.052;2022-08-30T14:48:15;26.50;58.30
40960;DHT22;27842;52.272;8.052;2022-08-30T14:50:40;26.60;57.60
40960;DHT22;27842;52.272;8.052;2022-08-30T14:53:06;26.70;57.40
40960;DHT22;27842;52.272;8.052;2022-08-30T14:55:33;26.70;57.30
40960;DHT22;27842;52.272;8.052;2022-08-30T14:57:59;26.60;57.40
40960;DHT22;27842;52.272;8.052;2022-08-30T15:00:25;26.60;57.30
40960;DHT22;27842;52.272;8.052;2022-08-30T15:02:51;26.50;56.60
40960;DHT22;27842;52.272;8.052;2022-08-30T15:05:17;26.40;56.80
40960;DHT22;27842;52.272;8.052;2022-08-30T15:07:43;26.20;57.10
40960;DHT22;27842;52.272;8.052;2022-08-30T15:10:09;26.10;57.50
40960;DHT22;27842;52.272;8.052;2022-08-30T15:12:35;26.00;57.30
40960;DHT22;27842;52.272;8.052;2022-08-30T15:15:00;25.90;57.80
40960;DHT22;27842;52.272;8.052;2022-08-30T15:17:26;25.80;57.40
40960;DHT22;27842;52.272;8.052;2022-08-30T15:19:51;25.60;57.30
40960;DHT22;27842;52.272;8.052;2022-08-30T15:22:18;25.50;57.20
40960;DHT22;27842;52.272;8.052;2022-08-30T15:24:43;25.50;57.40
40960;DHT22;27842;52.272;8.052;2022-08-30T15:27:09;25.30;57.20
40960;DHT22;27842;52.272;8.052;2022-08-30T15:29:35;25.20;57.20
40960;DHT22;27842;52.272;8.052;2022-08-30T15:32:02;25.20;57.30
40960;DHT22;27842;52.272;8.052;2022-08-30T15:34:29;25.20;56.70
40960;DHT22;27842;52.272;8.052;2022-08-30T15:36:55;25.00;56.80
40960;DHT22;27842;52.272;8.052;2022-08-30T15:39:21;24.90;57.30
40960;DHT22;27842;52.272;8.052;2022-08-30T15:41:47;24.90;57.40
40960;DHT22;27842;52.272;8.052;2022-08-30T15:44:14;24.80;57.50
40960;DHT22;27842;52.272;8.052;2022-08-30T15:46:41;24.70;57.80
40960;DHT22;27842;52.272;8.052;2022-08-30T15:49:16;24.60;58.20
40960;DHT22;27842;52.272;8.052;2022-08-30T15:51:43;24.50;58.40
40960;DHT22;27842;52.272;8.052;2022-08-30T15:54:10;24.50;58.70
40960;DHT22;27842;52.272;8.052;2022-08-30T15:56:37;24.40;58.70
40960;DHT22;27842;52.272;8.052;2022-08-30T15:59:03;24.50;58.70
40960;DHT22;27842;52.272;8.052;2022-08-30T16:01:29;24.40;58.40
40960;DHT22;27842;52.272;8.052;2022-08-30T16:03:54;24.40;58.60
40960;DHT22;27842;52.272;8.052;2022-08-30T16:06:23;24.40;58.70
40960;DHT22;27842;52.272;8.052;2022-08-30T16:08:49;24.40;58.50
40960;DHT22;27842;52.272;8.052;2022-08-30T16:11:17;24.40;58.30
40960;DHT22;27842;52.272;8.052;2022-08-30T16:13:43;24.40;58.30
40960;DHT22;27842;52.272;8.052;2022-08-30T16:16:10;24.30;58.40
40960;DHT22;27842;52.272;8.052;2022-08-30T16:18:37;24.30;57.60
40960;DHT22;27842;52.272;8.052;2022-08-30T16:23:32;24.20;57.40
40960;DHT22;27842;52.272;8.052;2022-08-30T16:25:57;24.20;57.80
40960;DHT22;27842;52.272;8.052;2022-08-30T16:28:23;24.10;57.80
40960;DHT22;27842;52.272;8.052;2022-08-30T16:30:49;24.10;57.70
40960;DHT22;27842;52.272;8.052;2022-08-30T16:33:14;24.10;57.40
40960;DHT22;27842;52.272;8.052;2022-08-30T16:35:40;24.10;57.60
40960;DHT22;27842;52.272;8.052;2022-08-30T16:38:06;24.00;57.60
40960;DHT22;27842;52.272;8.052;2022-08-30T16:40:31;24.00;57.80
40960;DHT22;27842;52.272;8.052;2022-08-30T16:42:57;24.00;57.60
40960;DHT22;27842;52.272;8.052;2022-08-30T16:45:22;24.00;57.50
40960;DHT22;27842;52.272;8.052;2022-08-30T16:47:48;24.00;57.50
40960;DHT22;27842;52.272;8.052;2022-08-30T16:50:13;24.00;57.70
40960;DHT22;27842;52.272;8.052;2022-08-30T16:52:41;24.00;57.90
40960;DHT22;27842;52.272;8.052;2022-08-30T16:55:07;23.90;57.80
40960;DHT22;27842;52.272;8.052;2022-08-30T16:57:32;23.90;57.90
40960;DHT22;27842;52.272;8.052;2022-08-30T16:59:58;23.90;57.90
40960;DHT22;27842;52.272;8.052;2022-08-30T17:02:24;23.90;57.90
40960;DHT22;27842;52.272;8.052;2022-08-30T17:04:49;23.80;58.30
40960;DHT22;27842;52.272;8.052;2022-08-30T17:07:15;23.90;58.20
40960;DHT22;27842;52.272;8.052;2022-08-30T17:09:40;23.80;58.10
40960;DHT22;27842;52.272;8.052;2022-08-30T17:12:06;23.90;58.30
40960;DHT22;27842;52.272;8.052;2022-08-30T17:14:32;23.90;58.10
40960;DHT22;27842;52.272;8.052;2022-08-30T17:16:57;23.90;57.90
40960;DHT22;27842;52.272;8.052;2022-08-30T17:19:23;23.80;57.90
40960;DHT22;27842;52.272;8.052;2022-08-30T17:21:49;23.80;58.00
40960;DHT22;27842;52.272;8.052;2022-08-30T17:24:14;23.80;57.80
40960;DHT22;27842;52.272;8.052;2022-08-30T17:26:40;23.80;57.40
40960;DHT22;27842;52.272;8.052;2022-08-30T17:29:06;23.80;57.40
40960;DHT22;27842;52.272;8.052;2022-08-30T17:31:31;23.70;57.50
40960;DHT22;27842;52.272;8.052;2022-08-30T17:33:59;23.70;57.80
40960;DHT22;27842;52.272;8.052;2022-08-30T17:36:25;23.70;58.00
40960;DHT22;27842;52.272;8.052;2022-08-30T17:38:51;23.70;58.40
40960;DHT22;27842;52.272;8.052;2022-08-30T17:41:16;23.60;58.70
40960;DHT22;27842;52.272;8.052;2022-08-30T17:43:42;23.60;58.90
40960;DHT22;27842;52.272;8.052;2022-08-30T17:46:12;23.50;59.20
40960;DHT22;27842;52.272;8.052;2022-08-30T17:48:42;23.50;59.50
40960;DHT22;27842;52.272;8.052;2022-08-30T17:51:08;23.50;59.80